createdAt,value
2023-03-29T00:03:19.767Z,8.08
2023-03-29T00:07:19.852Z,8.12
2023-03-29T00:11:20.021Z,7.92
2023-03-29T00:15:20.224Z,7.63
2023-03-29T00:19:20.381Z,7.83
2023-03-29T00:23:20.538Z,7.90
2023-03-29T00:27:20.729Z,7.92
2023-03-29T00:31:20.924Z,7.83
2023-03-29T00:35:21.104Z,7.88
2023-03-29T00:39:21.300Z,7.89
2023-03-29T00:43:21.386Z,7.82
2023-03-29T00:47:21.575Z,7.69
2023-03-29T00:51:21.785Z,7.65
2023-03-29T00:55:21.924Z,7.74
2023-03-29T00:59:22.075Z,7.53
2023-03-29T01:03:22.282Z,7.67
2023-03-29T01:07:22.410Z,7.59
2023-03-29T01:11:22.660Z,7.40
2023-03-29T01:15:22.814Z,7.53
2023-03-29T01:19:23.038Z,7.42
2023-03-29T01:23:23.207Z,7.08
2023-03-29T01:27:23.385Z,7.05
2023-03-29T01:31:23.662Z,6.98
2023-03-29T01:35:23.641Z,6.89
2023-03-29T01:39:23.542Z,6.94
2023-03-29T01:43:23.504Z,6.86
2023-03-29T01:47:23.516Z,6.85
2023-03-29T01:51:23.429Z,6.73
2023-03-29T01:55:23.382Z,6.82
2023-03-29T01:59:23.357Z,6.52
2023-03-29T02:03:23.363Z,6.64
2023-03-29T02:07:23.300Z,6.33
2023-03-29T02:11:23.274Z,5.92
2023-03-29T02:15:23.289Z,5.94
2023-03-29T02:19:23.276Z,6.10
2023-03-29T02:23:23.249Z,6.01
2023-03-29T02:27:23.162Z,5.61
2023-03-29T02:31:23.263Z,5.46
2023-03-29T02:35:23.086Z,5.58
2023-03-29T02:39:23.054Z,5.34
2023-03-29T02:43:25.277Z,5.35
2023-03-29T02:47:23.038Z,5.17
2023-03-29T02:51:22.981Z,5.19
2023-03-29T02:55:22.926Z,5.08
2023-03-29T02:59:22.887Z,5.05
2023-03-29T03:03:22.971Z,4.84
2023-03-29T03:07:22.820Z,4.55
2023-03-29T03:11:22.849Z,4.57
2023-03-29T03:15:22.776Z,4.45
2023-03-29T03:19:22.848Z,4.32
2023-03-29T03:23:22.785Z,4.34
2023-03-29T03:27:22.738Z,4.24
2023-03-29T03:31:22.698Z,4.35
2023-03-29T03:35:22.681Z,4.38
2023-03-29T03:39:22.643Z,4.18
2023-03-29T03:43:22.590Z,4.03
2023-03-29T03:47:22.587Z,4.03
2023-03-29T03:51:22.534Z,4.10
2023-03-29T03:55:22.497Z,4.02
2023-03-29T03:59:22.633Z,3.97
2023-03-29T04:03:22.755Z,3.87
2023-03-29T04:07:22.495Z,4.02
2023-03-29T04:11:22.468Z,4.08
2023-03-29T04:15:22.651Z,4.01
2023-03-29T04:19:22.411Z,4.02
2023-03-29T04:23:22.356Z,4.03
2023-03-29T04:27:22.352Z,3.97
2023-03-29T04:31:22.371Z,3.87
2023-03-29T04:35:22.285Z,3.84
2023-03-29T04:39:22.252Z,3.72
2023-03-29T04:43:22.166Z,3.65
2023-03-29T04:47:22.195Z,3.53
2023-03-29T04:51:22.190Z,3.75
2023-03-29T04:55:22.114Z,3.63
2023-03-29T04:59:22.083Z,3.77
2023-03-29T05:03:22.022Z,4.14
2023-03-29T05:07:21.996Z,4.04
2023-03-29T05:11:21.984Z,4.04
2023-03-29T05:15:21.935Z,3.72
2023-03-29T05:19:21.923Z,3.83
2023-03-29T05:23:21.832Z,3.76
2023-03-29T05:27:21.834Z,3.73
2023-03-29T05:31:21.939Z,3.70
2023-03-29T05:35:22.035Z,3.96
2023-03-29T05:39:22.039Z,4.02
2023-03-29T05:43:22.218Z,4.38
2023-03-29T05:47:21.937Z,4.91
2023-03-29T05:51:22.215Z,5.43
2023-03-29T05:55:21.879Z,6.33
2023-03-29T05:59:22.205Z,7.36
2023-03-29T06:03:22.244Z,7.98
2023-03-29T06:07:22.207Z,9.32
2023-03-29T06:11:21.692Z,10.78
2023-03-29T06:15:21.657Z,13.26
2023-03-29T06:19:21.687Z,15.50
2023-03-29T06:23:21.703Z,17.28
2023-03-29T06:27:21.805Z,18.82
2023-03-29T06:31:21.924Z,10.25
2023-03-29T06:35:22.027Z,6.91
2023-03-29T06:39:22.283Z,4.95
2023-03-29T06:43:22.477Z,6.42
2023-03-29T06:47:22.712Z,9.33
2023-03-29T06:51:23.431Z,13.96
2023-03-29T06:55:22.750Z,17.16
2023-03-29T06:59:22.338Z,19.32
2023-03-29T07:03:22.286Z,25.27
2023-03-29T07:07:22.777Z,29.53
2023-03-29T07:11:22.232Z,33.18
2023-03-29T07:15:22.265Z,35.98
2023-03-29T07:19:22.161Z,39.54
2023-03-29T07:23:22.200Z,45.02
2023-03-29T07:27:22.279Z,52.04
2023-03-29T07:31:22.730Z,49.61
2023-03-29T07:35:22.758Z,59.08
2023-03-29T07:39:22.705Z,59.29
2023-03-29T07:43:22.611Z,58.17
2023-03-29T07:47:29.758Z,57.97
2023-03-29T07:51:22.728Z,58.27
2023-03-29T07:55:22.603Z,56.85
2023-03-29T07:59:22.581Z,54.48
2023-03-29T08:03:22.622Z,48.60
2023-03-29T08:07:22.522Z,49.28
2023-03-29T08:11:22.506Z,43.95
2023-03-29T08:15:22.464Z,40.84
2023-03-29T08:19:22.482Z,37.70
2023-03-29T08:23:22.444Z,27.13
2023-03-29T08:27:22.453Z,26.62
2023-03-29T08:31:22.494Z,27.41
2023-03-29T08:35:22.424Z,23.06
2023-03-29T08:39:22.774Z,26.12
2023-03-29T08:43:22.527Z,26.75
2023-03-29T08:47:22.796Z,27.36
2023-03-29T08:51:22.761Z,27.79
2023-03-29T08:55:22.489Z,29.30
2023-03-29T08:59:22.492Z,29.28
2023-03-29T09:03:22.578Z,25.57
2023-03-29T09:07:25.309Z,18.15
2023-03-29T09:11:22.576Z,10.13
2023-03-29T09:15:22.493Z,13.06
2023-03-29T09:19:22.451Z,14.94
2023-03-29T09:23:22.787Z,15.91
2023-03-29T09:27:22.374Z,17.77
2023-03-29T09:31:22.884Z,18.97
2023-03-29T09:35:22.357Z,19.52
2023-03-29T09:39:22.791Z,19.41
2023-03-29T09:43:22.288Z,22.38
2023-03-29T09:47:22.426Z,33.35
2023-03-29T09:51:22.758Z,35.05
2023-03-29T09:55:22.712Z,35.52
2023-03-29T09:59:22.889Z,35.21
2023-03-29T10:03:22.932Z,34.29
2023-03-29T10:07:22.989Z,33.53
2023-03-29T10:11:23.368Z,35.69
2023-03-29T10:15:29.788Z,37.02
2023-03-29T10:19:23.996Z,39.32
2023-03-29T10:23:22.944Z,45.10
2023-03-29T10:27:22.935Z,44.29
2023-03-29T10:31:23.148Z,46.45
2023-03-29T10:35:23.294Z,49.07
2023-03-29T10:39:23.309Z,47.73
2023-03-29T10:43:22.764Z,48.96
2023-03-29T10:47:22.768Z,51.04
2023-03-29T10:51:22.713Z,49.59
2023-03-29T10:55:22.681Z,51.25
2023-03-29T10:59:22.656Z,55.25
2023-03-29T11:03:22.780Z,53.31
2023-03-29T11:07:22.592Z,53.68
2023-03-29T11:11:22.526Z,53.66
2023-03-29T11:15:22.817Z,55.39
2023-03-29T11:19:22.510Z,56.25
2023-03-29T11:23:22.472Z,53.88
2023-03-29T11:27:22.802Z,55.45
2023-03-29T11:31:22.841Z,52.07
2023-03-29T11:35:22.778Z,52.10
2023-03-29T11:39:22.904Z,50.48
2023-03-29T11:43:23.070Z,47.55
2023-03-29T11:47:23.253Z,45.87
2023-03-29T11:51:23.436Z,43.03
2023-03-29T11:55:23.678Z,40.76
2023-03-29T11:59:23.596Z,37.01
2023-03-29T12:03:23.670Z,34.10
2023-03-29T12:07:23.547Z,29.72
2023-03-29T12:11:23.531Z,29.43
2023-03-29T12:15:23.473Z,26.49
2023-03-29T12:19:23.466Z,23.99
2023-03-29T12:23:23.395Z,22.17
2023-03-29T12:27:23.418Z,21.11
2023-03-29T12:31:23.447Z,19.44
2023-03-29T12:35:23.427Z,18.62
2023-03-29T12:39:23.583Z,18.01
2023-03-29T12:43:23.780Z,16.00
2023-03-29T12:47:23.971Z,15.19
2023-03-29T12:51:24.133Z,13.77
2023-03-29T12:55:24.309Z,12.95
2023-03-29T12:59:24.429Z,11.10
2023-03-29T13:03:24.461Z,10.31
2023-03-29T13:07:24.421Z,8.11
2023-03-29T13:11:24.413Z,8.02
2023-03-29T13:15:24.407Z,7.73
2023-03-29T13:19:24.432Z,7.62
2023-03-29T13:23:24.472Z,6.97
2023-03-29T13:27:24.541Z,6.37
2023-03-29T13:31:24.656Z,5.75
2023-03-29T13:35:24.625Z,5.58
2023-03-29T13:39:24.736Z,5.08
2023-03-29T13:43:24.811Z,5.16
2023-03-29T13:47:24.985Z,4.53
2023-03-29T13:51:25.045Z,4.64
2023-03-29T13:55:25.159Z,4.51
2023-03-29T13:59:25.227Z,4.42
2023-03-29T14:03:25.399Z,4.51
2023-03-29T14:07:25.456Z,4.66
2023-03-29T14:11:25.612Z,4.52
2023-03-29T14:15:25.704Z,4.44
2023-03-29T14:19:25.919Z,4.09
2023-03-29T14:23:26.040Z,3.80
2023-03-29T14:27:26.147Z,3.79
2023-03-29T14:31:26.307Z,3.66
2023-03-29T14:35:26.488Z,3.62
2023-03-29T14:39:26.699Z,3.72
2023-03-29T14:43:26.908Z,3.62
2023-03-29T14:47:27.136Z,3.60
2023-03-29T14:51:27.499Z,3.62
2023-03-29T14:55:27.498Z,3.62
2023-03-29T14:59:27.676Z,3.51
2023-03-29T15:03:28.056Z,3.42
2023-03-29T15:07:27.824Z,3.37
2023-03-29T15:11:27.909Z,3.38
2023-03-29T15:15:27.832Z,3.30
2023-03-29T15:19:27.742Z,3.29
2023-03-29T15:23:27.705Z,3.31
2023-03-29T15:27:27.645Z,3.14
2023-03-29T15:31:27.666Z,3.00
2023-03-29T15:35:27.613Z,2.95
2023-03-29T15:39:27.577Z,2.85
2023-03-29T15:43:27.546Z,2.82
2023-03-29T15:47:27.672Z,2.77
2023-03-29T15:51:27.799Z,2.77
2023-03-29T15:55:27.945Z,2.72
2023-03-29T15:59:28.104Z,2.76
2023-03-29T16:03:28.309Z,2.84
2023-03-29T16:07:28.393Z,2.59
2023-03-29T16:11:28.488Z,2.57
2023-03-29T16:15:28.598Z,2.63
2023-03-29T16:19:28.743Z,2.65
2023-03-29T16:23:28.928Z,2.59
2023-03-29T16:27:29.158Z,2.59
2023-03-29T16:31:29.107Z,2.64
2023-03-29T16:35:29.123Z,2.61
2023-03-29T16:39:29.041Z,2.58
2023-03-29T16:43:29.019Z,2.62
2023-03-29T16:47:28.994Z,2.59
2023-03-29T16:51:28.918Z,2.57
2023-03-29T16:55:28.894Z,2.59
2023-03-29T16:59:28.881Z,2.49
2023-03-29T17:03:28.842Z,2.52
2023-03-29T17:07:28.784Z,2.57
2023-03-29T17:11:29.078Z,2.58
2023-03-29T17:15:28.768Z,2.49
2023-03-29T17:19:28.798Z,2.45
2023-03-29T17:23:28.803Z,2.52
2023-03-29T17:27:28.822Z,2.44
2023-03-29T17:31:28.963Z,2.44
2023-03-29T17:35:28.904Z,2.33
2023-03-29T17:39:28.830Z,2.32
2023-03-29T17:43:28.796Z,2.34
2023-03-29T17:47:28.793Z,2.28
2023-03-29T17:51:28.761Z,2.33
2023-03-29T17:55:28.751Z,2.33
2023-03-29T17:59:28.772Z,2.27
2023-03-29T18:03:28.787Z,2.23
2023-03-29T18:07:28.734Z,2.17
2023-03-29T18:11:28.754Z,2.26
2023-03-29T18:15:28.763Z,2.21
2023-03-29T18:19:28.764Z,2.13
2023-03-29T18:23:28.803Z,2.16
2023-03-29T18:27:28.779Z,2.18
2023-03-29T18:31:28.825Z,2.13
2023-03-29T18:35:28.888Z,2.12
2023-03-29T18:39:28.883Z,2.08
2023-03-29T18:43:28.973Z,2.01
2023-03-29T18:47:29.041Z,2.03
2023-03-29T18:51:29.072Z,1.99
2023-03-29T18:55:29.153Z,1.97
2023-03-29T18:59:29.244Z,1.92
2023-03-29T19:03:29.468Z,1.89
2023-03-29T19:07:29.437Z,1.88
2023-03-29T19:11:29.548Z,1.87
2023-03-29T19:15:29.652Z,1.84
2023-03-29T19:19:29.693Z,1.88
2023-03-29T19:23:29.810Z,1.84
2023-03-29T19:27:29.920Z,1.81
2023-03-29T19:31:30.108Z,1.81
2023-03-29T19:35:30.189Z,1.80
2023-03-29T19:39:30.194Z,1.76
2023-03-29T19:43:30.341Z,1.78
2023-03-29T19:47:30.445Z,1.74
2023-03-29T19:51:30.526Z,1.72
2023-03-29T19:55:30.702Z,1.72
2023-03-29T19:59:30.723Z,1.69
2023-03-29T20:03:30.830Z,1.66
2023-03-29T20:07:30.911Z,1.65
2023-03-29T20:11:31.053Z,1.62
2023-03-29T20:15:31.126Z,1.63
2023-03-29T20:19:31.226Z,1.61
2023-03-29T20:23:31.358Z,1.62
2023-03-29T20:27:31.450Z,1.59
2023-03-29T20:31:31.588Z,1.56
2023-03-29T20:35:31.694Z,1.58
2023-03-29T20:39:31.775Z,1.55
2023-03-29T20:43:31.875Z,1.53
2023-03-29T20:47:31.976Z,1.55
2023-03-29T20:51:32.993Z,1.54
2023-03-29T20:55:32.144Z,1.54
2023-03-29T20:59:32.224Z,1.52
2023-03-29T21:03:32.438Z,1.52
2023-03-29T21:07:32.475Z,1.52
2023-03-29T21:11:32.601Z,1.50
2023-03-29T21:15:32.796Z,1.48
2023-03-29T21:19:32.854Z,1.48
2023-03-29T21:23:33.002Z,1.48
2023-03-29T21:27:33.107Z,1.46
2023-03-29T21:31:33.307Z,1.45
2023-03-29T21:35:33.421Z,1.45
2023-03-29T21:39:33.545Z,1.41
2023-03-29T21:43:33.639Z,1.41
2023-03-29T21:47:33.832Z,1.38
2023-03-29T21:51:33.964Z,1.38
2023-03-29T21:55:34.115Z,1.37
2023-03-29T21:59:34.278Z,1.37
2023-03-29T22:03:34.467Z,1.34
2023-03-29T22:07:34.584Z,1.33
2023-03-29T22:11:34.791Z,1.33
2023-03-29T22:15:34.923Z,1.32
2023-03-29T22:19:35.085Z,1.29
2023-03-29T22:23:35.229Z,1.29
2023-03-29T22:27:35.360Z,1.28
2023-03-29T22:31:35.588Z,1.27
2023-03-29T22:35:35.704Z,1.26
2023-03-29T22:39:35.834Z,1.26
2023-03-29T22:43:35.976Z,1.24
2023-03-29T22:47:36.187Z,1.22
2023-03-29T22:51:36.312Z,1.22
2023-03-29T22:55:36.419Z,1.21
2023-03-29T22:59:36.601Z,1.20
2023-03-29T23:03:36.746Z,1.17
2023-03-29T23:07:36.839Z,1.17
2023-03-29T23:11:37.008Z,1.16
2023-03-29T23:15:37.157Z,1.13
2023-03-29T23:19:37.288Z,1.12
2023-03-29T23:23:37.428Z,1.10
2023-03-29T23:27:37.597Z,1.09
2023-03-29T23:31:37.819Z,1.10
2023-03-29T23:35:38.073Z,1.10
2023-03-29T23:39:38.091Z,1.09
2023-03-29T23:43:38.275Z,1.08
2023-03-29T23:47:38.452Z,1.07
2023-03-29T23:51:38.592Z,1.06
2023-03-29T23:55:38.742Z,1.03
2023-03-29T23:59:38.907Z,1.05
